aviador You're here:

KRID Decoded Metar

in
Report Time2017-08-16 19:15:00
UTC Time2017-08-16 19:33:59
Flight Rules vfr VFR
Wind200° at 04 kt
W.Decomp.*RWY 24: 3.1 kt HW 2.6 kt LCW
RWY 15: 2.6 kt HW 3.1 kt RCW
W.Rank200° ranks 12
Current wind is below 200° avg. (9.1)
Visibility9999 m
Phenomena:N/A
Clouds:Scattered 041 Hf
Expected CloudBase > 4,000 ft AGL from Temp-Dew spread
CeilingNone
Temp30°C
Dew Point20°C (55% RH)
Heat Index31.9°C
QNH1017 hPa
Raw Report
KRID 161915Z AUTO 20004KT 10SM SCT041 30/20 A3004 RMK AO2=

Extra information for KRID:More info

Social comments